sensor_id;sensor_type;location;lat;lon;timestamp;pressure;altitude;pressure_sealevel;temperature;humidity
66664;BME280;59683;51.428;-1.994;2023-08-07T06:23:00;101271.09;;;9.80;100.00
66664;BME280;59683;51.428;-1.994;2023-08-07T06:25:25;101282.81;;;10.42;100.00
66664;BME280;59683;51.428;-1.994;2023-08-07T06:27:50;101277.22;;;11.09;100.00
66664;BME280;59683;51.428;-1.994;2023-08-07T06:30:16;101286.72;;;11.61;100.00
66664;BME280;59683;51.428;-1.994;2023-08-07T06:32:42;101290.47;;;12.18;100.00
66664;BME280;59683;51.428;-1.994;2023-08-07T06:35:07;101289.50;;;12.66;100.00
66664;BME280;59683;51.428;-1.994;2023-08-07T06:37:33;101292.66;;;13.16;100.00
66664;BME280;59683;51.428;-1.994;2023-08-07T06:39:58;101301.84;;;13.34;100.00
66664;BME280;59683;51.428;-1.994;2023-08-07T06:42:24;101308.25;;;13.43;100.00
66664;BME280;59683;51.428;-1.994;2023-08-07T06:44:49;101302.63;;;13.68;100.00
66664;BME280;59683;51.428;-1.994;2023-08-07T06:47:14;101314.50;;;13.96;100.00
66664;BME280;59683;51.428;-1.994;2023-08-07T06:49:40;101316.22;;;14.39;100.00
66664;BME280;59683;51.428;-1.994;2023-08-07T06:52:05;101308.91;;;14.73;100.00
66664;BME280;59683;51.428;-1.994;2023-08-07T06:54:31;101307.13;;;15.14;100.00
66664;BME280;59683;51.428;-1.994;2023-08-07T06:56:56;101307.94;;;15.05;100.00
66664;BME280;59683;51.428;-1.994;2023-08-07T06:59:22;101319.41;;;15.36;100.00
66664;BME280;59683;51.428;-1.994;2023-08-07T07:01:48;101312.41;;;15.45;100.00
66664;BME280;59683;51.428;-1.994;2023-08-07T07:04:14;101315.28;;;15.22;100.00
66664;BME280;59683;51.428;-1.994;2023-08-07T07:06:39;101314.22;;;15.04;100.00
66664;BME280;59683;51.428;-1.994;2023-08-07T07:09:05;101313.34;;;14.63;100.00
66664;BME280;59683;51.428;-1.994;2023-08-07T07:11:30;101317.34;;;14.16;100.00
66664;BME280;59683;51.428;-1.994;2023-08-07T07:13:56;101323.53;;;14.05;100.00
66664;BME280;59683;51.428;-1.994;2023-08-07T07:16:21;101317.63;;;14.01;100.00
66664;BME280;59683;51.428;-1.994;2023-08-07T07:18:49;101328.72;;;14.39;100.00
66664;BME280;59683;51.428;-1.994;2023-08-07T07:21:14;101327.03;;;14.38;100.00
66664;BME280;59683;51.428;-1.994;2023-08-07T07:23:40;101340.00;;;14.63;100.00
66664;BME280;59683;51.428;-1.994;2023-08-07T07:26:05;101344.28;;;15.06;100.00
66664;BME280;59683;51.428;-1.994;2023-08-07T07:28:31;101339.81;;;15.57;100.00
66664;BME280;59683;51.428;-1.994;2023-08-07T07:30:56;101337.97;;;15.88;100.00
66664;BME280;59683;51.428;-1.994;2023-08-07T07:33:22;101336.28;;;15.96;100.00
66664;BME280;59683;51.428;-1.994;2023-08-07T07:35:48;101329.81;;;16.18;100.00
66664;BME280;59683;51.428;-1.994;2023-08-07T07:38:13;101328.97;;;16.37;100.00
66664;BME280;59683;51.428;-1.994;2023-08-07T07:40:40;101334.97;;;16.78;100.00
66664;BME280;59683;51.428;-1.994;2023-08-07T07:43:06;101324.63;;;17.30;100.00
66664;BME280;59683;51.428;-1.994;2023-08-07T07:45:31;101320.19;;;17.66;100.00
66664;BME280;59683;51.428;-1.994;2023-08-07T07:47:59;101303.41;;;17.92;100.00
66664;BME280;59683;51.428;-1.994;2023-08-07T07:50:24;101289.56;;;18.40;100.00
66664;BME280;59683;51.428;-1.994;2023-08-07T07:52:49;101281.16;;;18.87;100.00
66664;BME280;59683;51.428;-1.994;2023-08-07T07:55:15;101271.78;;;19.26;100.00
66664;BME280;59683;51.428;-1.994;2023-08-07T07:57:41;101265.47;;;19.51;100.00
66664;BME280;59683;51.428;-1.994;2023-08-07T08:00:07;101271.44;;;19.87;100.00
66664;BME280;59683;51.428;-1.994;2023-08-07T08:02:36;101286.53;;;20.29;100.00
66664;BME280;59683;51.428;-1.994;2023-08-07T08:05:01;101275.44;;;20.65;100.00
66664;BME280;59683;51.428;-1.994;2023-08-07T08:07:27;101274.31;;;20.99;100.00
66664;BME280;59683;51.428;-1.994;2023-08-07T08:09:54;101280.56;;;21.30;100.00
66664;BME280;59683;51.428;-1.994;2023-08-07T08:12:21;101275.00;;;22.32;100.00
66664;BME280;59683;51.428;-1.994;2023-08-07T08:14:47;101266.44;;;22.28;100.00
66664;BME280;59683;51.428;-1.994;2023-08-07T08:17:12;101273.53;;;22.59;100.00
66664;BME280;59683;51.428;-1.994;2023-08-07T08:19:38;101270.84;;;22.74;100.00
66664;BME280;59683;51.428;-1.994;2023-08-07T08:22:03;101273.25;;;23.28;100.00
66664;BME280;59683;51.428;-1.994;2023-08-07T08:24:29;101265.94;;;23.07;100.00
66664;BME280;59683;51.428;-1.994;2023-08-07T08:26:54;101275.16;;;22.68;100.00
66664;BME280;59683;51.428;-1.994;2023-08-07T08:29:20;101262.59;;;22.61;100.00
66664;BME280;59683;51.428;-1.994;2023-08-07T08:31:45;101265.66;;;22.58;100.00
66664;BME280;59683;51.428;-1.994;2023-08-07T08:34:10;101256.50;;;22.44;100.00
66664;BME280;59683;51.428;-1.994;2023-08-07T08:36:36;101264.34;;;22.53;100.00
66664;BME280;59683;51.428;-1.994;2023-08-07T08:39:01;101271.22;;;22.71;100.00
66664;BME280;59683;51.428;-1.994;2023-08-07T08:41:26;101266.16;;;23.06;100.00
66664;BME280;59683;51.428;-1.994;2023-08-07T08:43:54;101266.66;;;23.67;100.00
66664;BME280;59683;51.428;-1.994;2023-08-07T08:46:20;101261.56;;;23.79;100.00
66664;BME280;59683;51.428;-1.994;2023-08-07T08:48:51;101271.69;;;23.70;100.00
66664;BME280;59683;51.428;-1.994;2023-08-07T08:51:20;101270.13;;;23.10;100.00
66664;BME280;59683;51.428;-1.994;2023-08-07T08:53:46;101262.09;;;23.16;100.00
66664;BME280;59683;51.428;-1.994;2023-08-07T08:56:12;101269.31;;;23.82;100.00
66664;BME280;59683;51.428;-1.994;2023-08-07T08:58:38;101257.16;;;24.20;100.00
66664;BME280;59683;51.428;-1.994;2023-08-07T09:01:04;101256.59;;;24.53;100.00
66664;BME280;59683;51.428;-1.994;2023-08-07T09:03:31;101257.00;;;24.50;100.00
66664;BME280;59683;51.428;-1.994;2023-08-07T09:05:58;101238.38;;;24.68;100.00
66664;BME280;59683;51.428;-1.994;2023-08-07T09:08:26;101236.13;;;24.79;100.00
66664;BME280;59683;51.428;-1.994;2023-08-07T09:10:52;101238.13;;;24.63;100.00
66664;BME280;59683;51.428;-1.994;2023-08-07T09:13:20;101246.72;;;24.39;100.00
66664;BME280;59683;51.428;-1.994;2023-08-07T09:15:48;101248.56;;;24.38;100.00
66664;BME280;59683;51.428;-1.994;2023-08-07T09:18:16;101238.53;;;24.60;100.00
66664;BME280;59683;51.428;-1.994;2023-08-07T09:20:42;101242.78;;;24.76;99.95
66664;BME280;59683;51.428;-1.994;2023-08-07T09:23:08;101242.53;;;24.71;95.38
66664;BME280;59683;51.428;-1.994;2023-08-07T09:25:34;101237.34;;;25.11;87.49
66664;BME280;59683;51.428;-1.994;2023-08-07T09:28:06;101231.28;;;25.09;70.63
66664;BME280;59683;51.428;-1.994;2023-08-07T09:30:34;101235.22;;;24.65;83.87
66664;BME280;59683;51.428;-1.994;2023-08-07T09:33:01;101232.28;;;25.08;89.69
66664;BME280;59683;51.428;-1.994;2023-08-07T09:35:29;101225.72;;;25.30;79.09
66664;BME280;59683;51.428;-1.994;2023-08-07T09:37:56;101210.53;;;25.36;89.82
66664;BME280;59683;51.428;-1.994;2023-08-07T09:40:22;101210.94;;;25.33;76.55
66664;BME280;59683;51.428;-1.994;2023-08-07T09:42:52;101213.91;;;25.71;76.94
66664;BME280;59683;51.428;-1.994;2023-08-07T09:45:22;101215.56;;;25.39;75.78
66664;BME280;59683;51.428;-1.994;2023-08-07T09:48:01;101220.63;;;25.95;65.27
66664;BME280;59683;51.428;-1.994;2023-08-07T09:50:28;101206.66;;;25.85;75.29
66664;BME280;59683;51.428;-1.994;2023-08-07T09:52:55;101202.66;;;24.86;75.62
66664;BME280;59683;51.428;-1.994;2023-08-07T09:55:21;101203.75;;;24.01;90.85
66664;BME280;59683;51.428;-1.994;2023-08-07T09:57:47;101192.13;;;24.35;81.44
66664;BME280;59683;51.428;-1.994;2023-08-07T10:00:13;101201.22;;;24.49;88.15
66664;BME280;59683;51.428;-1.994;2023-08-07T10:02:46;101201.69;;;24.03;83.52
66664;BME280;59683;51.428;-1.994;2023-08-07T10:05:12;101199.44;;;23.64;100.00
66664;BME280;59683;51.428;-1.994;2023-08-07T10:07:38;101206.41;;;23.94;100.00
66664;BME280;59683;51.428;-1.994;2023-08-07T10:10:05;101197.16;;;24.73;100.00
66664;BME280;59683;51.428;-1.994;2023-08-07T10:12:32;101184.72;;;24.85;83.91
66664;BME280;59683;51.428;-1.994;2023-08-07T10:14:59;101171.22;;;24.99;88.49
66664;BME280;59683;51.428;-1.994;2023-08-07T10:17:25;101180.88;;;24.60;97.77
66664;BME280;59683;51.428;-1.994;2023-08-07T10:19:51;101184.28;;;24.82;94.13
66664;BME280;59683;51.428;-1.994;2023-08-07T10:22:23;101180.94;;;25.34;92.21
66664;BME280;59683;51.428;-1.994;2023-08-07T10:24:50;101183.91;;;25.66;89.45
66664;BME280;59683;51.428;-1.994;2023-08-07T10:27:16;101181.59;;;25.63;72.04
66664;BME280;59683;51.428;-1.994;2023-08-07T10:29:48;101180.88;;;25.14;84.21
66664;BME280;59683;51.428;-1.994;2023-08-07T10:32:19;101177.53;;;24.58;77.96
66664;BME280;59683;51.428;-1.994;2023-08-07T10:34:51;101180.31;;;24.08;83.15
66664;BME280;59683;51.428;-1.994;2023-08-07T10:37:39;101175.72;;;23.81;100.00
66664;BME280;59683;51.428;-1.994;2023-08-07T10:40:09;101173.59;;;24.60;85.38
66664;BME280;59683;51.428;-1.994;2023-08-07T10:42:57;101178.88;;;25.63;81.07
66664;BME280;59683;51.428;-1.994;2023-08-07T10:45:24;101168.22;;;26.34;57.79
66664;BME280;59683;51.428;-1.994;2023-08-07T10:48:06;101169.97;;;27.25;50.57
66664;BME280;59683;51.428;-1.994;2023-08-07T10:50:49;101171.31;;;26.51;53.76
66664;BME280;59683;51.428;-1.994;2023-08-07T10:53:42;101167.13;;;25.16;70.11
66664;BME280;59683;51.428;-1.994;2023-08-07T10:56:11;101167.16;;;24.68;74.94
66664;BME280;59683;51.428;-1.994;2023-08-07T10:58:38;101159.78;;;24.49;81.60
66664;BME280;59683;51.428;-1.994;2023-08-07T11:03:52;101153.44;;;25.44;56.57
66664;BME280;59683;51.428;-1.994;2023-08-07T11:06:22;101151.31;;;25.13;57.26
66664;BME280;59683;51.428;-1.994;2023-08-07T11:08:50;101148.47;;;24.38;70.38
66664;BME280;59683;51.428;-1.994;2023-08-07T11:11:16;101149.47;;;23.74;73.13
66664;BME280;59683;51.428;-1.994;2023-08-07T11:13:42;101152.22;;;23.60;81.94
66664;BME280;59683;51.428;-1.994;2023-08-07T11:16:07;101142.97;;;23.05;90.49
66664;BME280;59683;51.428;-1.994;2023-08-07T11:29:55;101126.94;;;26.12;64.60
66664;BME280;59683;51.428;-1.994;2023-08-07T11:32:21;101128.28;;;26.61;60.45
66664;BME280;59683;51.428;-1.994;2023-08-07T11:34:49;101123.09;;;26.53;53.63
66664;BME280;59683;51.428;-1.994;2023-08-07T11:37:16;101128.81;;;26.77;54.44
66664;BME280;59683;51.428;-1.994;2023-08-07T11:39:42;101125.41;;;27.26;48.07
66664;BME280;59683;51.428;-1.994;2023-08-07T11:45:31;101119.81;;;26.83;55.92
66664;BME280;59683;51.428;-1.994;2023-08-07T11:47:56;101115.06;;;26.72;58.78
66664;BME280;59683;51.428;-1.994;2023-08-07T11:50:24;101120.09;;;27.13;62.99
66664;BME280;59683;51.428;-1.994;2023-08-07T12:00:11;101123.28;;;27.60;47.81
66664;BME280;59683;51.428;-1.994;2023-08-07T12:26:58;101086.50;;;28.01;51.39
66664;BME280;59683;51.428;-1.994;2023-08-07T12:29:23;101086.31;;;28.39;49.54
66664;BME280;59683;51.428;-1.994;2023-08-07T12:31:56;101082.59;;;28.33;50.80
66664;BME280;59683;51.428;-1.994;2023-08-07T12:38:40;101083.34;;;28.59;55.02
66664;BME280;59683;51.428;-1.994;2023-08-07T12:41:09;101079.53;;;29.32;44.17
66664;BME280;59683;51.428;-1.994;2023-08-07T12:43:35;101079.63;;;28.84;46.34
66664;BME280;59683;51.428;-1.994;2023-08-07T12:46:06;101081.31;;;28.36;49.26
66664;BME280;59683;51.428;-1.994;2023-08-07T12:48:32;101073.13;;;28.85;49.09
66664;BME280;59683;51.428;-1.994;2023-08-07T12:50:57;101080.22;;;29.04;45.39
66664;BME280;59683;51.428;-1.994;2023-08-07T12:53:22;101081.41;;;28.78;45.45
66664;BME280;59683;51.428;-1.994;2023-08-07T14:59:16;101073.81;;;28.50;42.13
66664;BME280;59683;51.428;-1.994;2023-08-07T23:35:43;100995.13;;;9.31;100.00
66664;BME280;59683;51.428;-1.994;2023-08-07T23:38:09;100994.72;;;9.37;100.00
66664;BME280;59683;51.428;-1.994;2023-08-07T23:40:50;100987.94;;;9.46;100.00
66664;BME280;59683;51.428;-1.994;2023-08-07T23:43:15;100984.75;;;9.54;100.00
66664;BME280;59683;51.428;-1.994;2023-08-07T23:45:40;100993.84;;;9.62;100.00
66664;BME280;59683;51.428;-1.994;2023-08-07T23:48:06;100989.28;;;9.77;100.00
66664;BME280;59683;51.428;-1.994;2023-08-07T23:50:31;100998.28;;;9.87;100.00
66664;BME280;59683;51.428;-1.994;2023-08-07T23:52:57;100994.13;;;9.96;100.00
66664;BME280;59683;51.428;-1.994;2023-08-07T23:55:22;101000.56;;;10.05;100.00
66664;BME280;59683;51.428;-1.994;2023-08-07T23:57:48;100997.13;;;10.15;100.00
